createdAt,value
2019-01-05T00:01:19.003Z,100209.66
2019-01-05T00:03:50.248Z,100210.58
2019-01-05T00:06:21.452Z,100210.21
2019-01-05T00:08:52.632Z,100203.50
2019-01-05T00:11:23.825Z,100205.31
2019-01-05T00:13:54.998Z,100203.95
2019-01-05T00:16:26.367Z,100203.84
2019-01-05T00:18:57.746Z,100199.03
2019-01-05T00:21:30.242Z,100194.36
2019-01-05T00:24:01.813Z,100199.89
2019-01-05T00:26:33.703Z,100195.73
2019-01-05T00:29:05.215Z,100205.48
2019-01-05T00:31:58.626Z,100200.55
2019-01-05T00:34:32.868Z,100193.02
2019-01-05T00:37:05.240Z,100191.40
2019-01-05T00:39:36.964Z,100197.14
2019-01-05T00:42:09.675Z,100197.38
2019-01-05T00:44:42.027Z,100195.59
2019-01-05T00:47:14.419Z,100189.73
2019-01-05T00:49:49.539Z,100183.45
2019-01-05T00:52:22.236Z,100190.34
2019-01-05T00:54:53.616Z,100190.88
2019-01-05T00:57:26.096Z,100180.58
2019-01-05T00:59:58.565Z,100184.48
2019-01-05T01:02:30.393Z,100182.14
2019-01-05T01:05:02.274Z,100189.87
2019-01-05T01:07:33.417Z,100188.44
2019-01-05T01:10:04.915Z,100189.41
2019-01-05T01:12:36.232Z,100195.24
2019-01-05T01:15:07.992Z,100201.08
2019-01-05T01:17:39.358Z,100204.75
2019-01-05T01:20:10.677Z,100202.26
2019-01-05T01:22:44.835Z,100204.26
2019-01-05T01:25:16.401Z,100199.11
2019-01-05T01:27:48.072Z,100199.55
2019-01-05T01:30:19.484Z,100200.23
2019-01-05T01:32:52.024Z,100206.85
2019-01-05T01:35:23.347Z,100209.59
2019-01-05T01:37:58.974Z,100203.82
2019-01-05T01:40:30.166Z,100205.68
2019-01-05T01:43:01.816Z,100204.83
2019-01-05T01:45:34.211Z,100196.95
2019-01-05T01:48:05.902Z,100197.08
2019-01-05T01:50:38.608Z,100198.45
2019-01-05T01:53:12.801Z,100192.75
2019-01-05T01:55:47.278Z,100184.23
2019-01-05T01:58:21.598Z,100179.95
2019-01-05T02:00:53.088Z,100177.42
2019-01-05T02:03:24.385Z,100169.95
2019-01-05T02:05:58.927Z,100168.42
2019-01-05T02:08:34.204Z,100173.91
2019-01-05T02:14:00.410Z,100181.22
2019-01-05T02:16:34.837Z,100183.91
2019-01-05T02:19:10.573Z,100174.68
2019-01-05T02:21:46.194Z,100165.06
2019-01-05T02:24:21.880Z,100166.39
2019-01-05T02:27:15.667Z,100160.84
2019-01-05T02:29:51.291Z,100157.08
2019-01-05T02:32:26.918Z,100147.17
2019-01-05T02:35:02.939Z,100147.46
2019-01-05T02:37:38.545Z,100157.27
2019-01-05T02:40:14.419Z,100157.02
2019-01-05T02:42:50.059Z,100156.95
2019-01-05T02:45:25.687Z,100153.59
2019-01-05T02:48:01.343Z,100159.26
2019-01-05T02:50:36.989Z,100164.18
2019-01-05T02:53:12.639Z,100164.50
2019-01-05T02:55:48.288Z,100148.34
2019-01-05T02:58:23.905Z,100146.61
2019-01-05T03:03:50.571Z,100122.48
2019-01-05T03:06:26.219Z,100123.08
2019-01-05T03:09:01.851Z,100129.82
2019-01-05T03:11:37.460Z,100135.11
2019-01-05T03:14:13.107Z,100124.32
2019-01-05T03:16:48.733Z,100127.34
2019-01-05T03:19:24.434Z,100125.55
2019-01-05T03:22:00.052Z,100123.34
2019-01-05T03:24:35.889Z,100118.00
2019-01-05T03:27:11.852Z,100120.97
2019-01-05T03:29:47.922Z,100115.15
2019-01-05T03:32:41.373Z,100108.70
2019-01-05T03:35:17.002Z,100091.02
2019-01-05T03:37:52.635Z,100100.69
2019-01-05T03:40:28.275Z,100103.41
2019-01-05T03:43:03.884Z,100096.94
2019-01-05T03:45:39.992Z,100090.96
2019-01-05T03:48:15.999Z,100081.08
2019-01-05T03:53:41.187Z,100064.09
2019-01-05T03:56:16.825Z,100054.44
2019-01-05T03:58:52.505Z,100053.52
2019-01-05T04:01:28.154Z,100046.77
2019-01-05T04:04:04.171Z,100049.27
2019-01-05T04:06:40.169Z,100049.55
2019-01-05T04:09:15.833Z,100046.81
2019-01-05T04:11:51.450Z,100038.77
2019-01-05T04:14:27.092Z,100040.07
2019-01-05T04:17:02.740Z,100045.00
2019-01-05T04:19:38.380Z,100045.36
2019-01-05T04:22:14.039Z,100052.22
2019-01-05T04:24:49.932Z,100045.66
2019-01-05T04:27:25.587Z,100042.22
2019-01-05T04:30:01.226Z,100039.58
2019-01-05T04:32:36.871Z,100040.47
2019-01-05T04:35:12.509Z,100032.30
2019-01-05T04:37:48.499Z,100031.23
2019-01-05T04:43:13.347Z,100026.32
2019-01-05T04:45:48.994Z,100028.80
2019-01-05T04:48:24.987Z,100022.84
2019-01-05T04:51:00.659Z,100023.11
2019-01-05T04:53:45.829Z,100021.72
2019-01-05T04:56:39.280Z,100009.65
2019-01-05T04:59:14.909Z,100011.60
2019-01-05T05:01:50.559Z,100008.14
2019-01-05T05:04:26.195Z,100004.97
2019-01-05T05:07:02.201Z,99991.27
2019-01-05T05:09:55.658Z,99987.72
2019-01-05T05:12:31.621Z,99987.68
2019-01-05T05:15:07.642Z,99980.17
2019-01-05T05:17:43.298Z,99975.81
2019-01-05T05:20:19.248Z,99976.94
2019-01-05T05:22:54.898Z,99974.77
2019-01-05T05:25:30.549Z,99972.73
2019-01-05T05:28:06.166Z,99969.02
2019-01-05T05:30:41.792Z,99974.72
2019-01-05T05:33:17.408Z,99972.57
2019-01-05T05:35:53.039Z,99966.30
2019-01-05T05:38:29.030Z,99967.20
2019-01-05T05:41:04.673Z,99969.79
2019-01-05T05:43:40.281Z,99966.73
2019-01-05T05:46:15.981Z,99964.20
2019-01-05T05:48:51.615Z,99970.86
2019-01-05T05:51:27.675Z,99953.02
2019-01-05T05:54:03.304Z,99951.57
2019-01-05T05:56:38.939Z,99947.89
2019-01-05T05:59:14.556Z,99939.91
2019-01-05T06:01:50.216Z,99943.06
2019-01-05T06:04:25.824Z,99958.23
2019-01-05T06:07:01.466Z,99968.56
2019-01-05T06:09:37.114Z,99959.31
2019-01-05T06:12:15.609Z,99967.14
2019-01-05T06:14:51.590Z,99970.38
2019-01-05T06:17:28.257Z,99962.05
2019-01-05T06:20:04.215Z,99954.87
2019-01-05T06:22:39.885Z,99942.80
2019-01-05T06:25:15.494Z,99943.56
2019-01-05T06:27:51.132Z,99954.83
2019-01-05T06:30:26.785Z,99964.88
2019-01-05T06:33:02.438Z,99964.72
2019-01-05T06:35:38.049Z,99960.16
2019-01-05T06:38:13.682Z,99958.69
2019-01-05T06:40:49.315Z,99962.16
2019-01-05T06:43:24.956Z,99953.66
2019-01-05T06:46:00.606Z,99955.20
2019-01-05T06:48:45.439Z,99948.18
2019-01-05T06:51:21.075Z,99940.35
2019-01-05T06:53:57.420Z,99939.66
2019-01-05T06:56:33.028Z,99931.52
2019-01-05T06:59:27.008Z,99931.98
2019-01-05T07:02:02.638Z,99942.45
2019-01-05T07:04:38.273Z,99938.11
2019-01-05T07:07:14.268Z,99941.11
2019-01-05T07:09:49.881Z,99943.76
2019-01-05T07:12:25.503Z,99940.75
2019-01-05T07:15:01.140Z,99938.97
2019-01-05T07:17:36.789Z,99941.38
2019-01-05T07:20:12.817Z,99936.72
2019-01-05T07:22:48.431Z,99939.84
2019-01-05T07:25:24.095Z,99934.36
2019-01-05T07:28:00.052Z,99932.66
2019-01-05T07:30:35.697Z,99918.05
2019-01-05T07:35:55.892Z,99919.45
2019-01-05T07:38:31.533Z,99923.45
2019-01-05T07:41:07.191Z,99922.19
2019-01-05T07:43:42.875Z,99920.90
2019-01-05T07:46:24.632Z,99886.12
2019-01-05T07:49:00.274Z,99916.67
2019-01-05T07:51:35.905Z,99915.13
2019-01-05T07:54:11.508Z,99911.77
2019-01-05T07:56:47.163Z,99910.36
2019-01-05T07:59:29.116Z,99919.27
2019-01-05T08:04:55.679Z,99920.39
2019-01-05T08:13:07.131Z,99911.21
2019-01-05T08:15:42.750Z,99914.50
2019-01-05T08:18:18.408Z,99901.02
2019-01-05T08:20:54.018Z,99898.71
2019-01-05T08:23:29.669Z,99891.80
2019-01-05T08:26:05.274Z,99892.52
2019-01-05T08:28:41.030Z,99883.03
2019-01-05T08:31:16.659Z,99881.02
2019-01-05T08:33:52.306Z,99874.75
2019-01-05T08:36:27.950Z,99873.68
2019-01-05T08:41:57.459Z,99886.45
2019-01-05T08:44:33.089Z,99892.60
2019-01-05T08:47:08.758Z,99901.36
2019-01-05T08:49:44.384Z,99903.66
2019-01-05T08:52:20.038Z,99913.31
2019-01-05T08:54:55.643Z,99909.69
2019-01-05T08:57:31.295Z,99913.78
2019-01-05T09:00:24.719Z,99873.78
2019-01-05T09:03:01.198Z,99917.66
2019-01-05T09:05:36.813Z,99910.30
2019-01-05T09:08:12.467Z,99905.84
2019-01-05T09:10:48.106Z,99902.95
2019-01-05T09:13:23.744Z,99894.09
2019-01-05T09:15:59.720Z,99899.67
2019-01-05T09:18:35.742Z,99904.52
2019-01-05T09:21:11.351Z,99900.55
2019-01-05T09:26:38.246Z,99907.09
2019-01-05T09:29:13.879Z,99909.80
2019-01-05T09:31:49.512Z,99909.50
2019-01-05T09:34:25.138Z,99912.60
2019-01-05T09:37:01.110Z,99919.45
2019-01-05T09:39:36.759Z,99913.20
2019-01-05T09:42:12.354Z,99909.11
2019-01-05T09:44:48.013Z,99903.14
2019-01-05T09:47:23.613Z,99898.17
2019-01-05T09:49:59.271Z,99898.05
2019-01-05T09:55:24.500Z,99885.42
2019-01-05T09:58:00.136Z,99883.36
2019-01-05T10:00:36.121Z,99881.05
2019-01-05T10:03:12.114Z,99884.28
2019-01-05T10:05:47.759Z,99887.28
2019-01-05T10:08:23.358Z,99884.73
2019-01-05T10:10:59.044Z,99891.23
2019-01-05T10:13:52.445Z,99882.90
2019-01-05T10:16:28.431Z,99877.88
2019-01-05T10:19:04.076Z,99883.52
2019-01-05T10:27:12.158Z,99878.42
2019-01-05T10:29:48.155Z,99878.54
2019-01-05T10:32:23.776Z,99876.70
2019-01-05T10:34:59.417Z,99873.30
2019-01-05T10:37:35.047Z,99872.93
2019-01-05T10:40:10.665Z,99874.84
2019-01-05T10:42:46.293Z,99870.23
2019-01-05T10:48:11.238Z,99862.69
2019-01-05T10:50:46.910Z,99856.37
2019-01-05T10:53:22.928Z,99862.17
2019-01-05T10:58:45.243Z,99862.11
2019-01-05T11:01:20.853Z,99853.61
2019-01-05T11:03:57.883Z,99861.06
2019-01-05T11:06:33.621Z,99856.19
2019-01-05T11:09:27.051Z,99850.45
2019-01-05T11:12:02.686Z,99847.71
2019-01-05T11:14:38.437Z,99842.77
2019-01-05T11:17:14.049Z,99839.88
2019-01-05T11:19:49.714Z,99833.39
2019-01-05T11:22:25.692Z,99831.05
2019-01-05T11:25:01.370Z,99822.58
2019-01-05T11:27:36.954Z,99816.09
2019-01-05T11:30:12.632Z,99816.09
2019-01-05T11:32:48.228Z,99812.75
2019-01-05T11:35:23.918Z,99816.03
2019-01-05T11:37:59.552Z,99819.49
2019-01-05T11:40:35.174Z,99816.73
2019-01-05T11:43:10.805Z,99810.61
2019-01-05T11:45:46.471Z,99807.48
2019-01-05T11:48:22.125Z,99807.69
2019-01-05T11:50:57.778Z,99810.83
2019-01-05T11:53:33.395Z,99807.41
2019-01-05T11:56:09.037Z,99803.75
2019-01-05T11:58:44.669Z,99800.47
2019-01-05T12:01:20.350Z,99805.39
2019-01-05T12:03:56.327Z,99803.92
2019-01-05T12:06:32.016Z,99798.85
2019-01-05T12:09:08.064Z,99801.58
2019-01-05T12:11:43.776Z,99799.13
2019-01-05T12:14:19.404Z,99799.28
2019-01-05T12:16:55.038Z,99801.43
2019-01-05T12:19:30.679Z,99804.14
2019-01-05T12:22:06.376Z,99803.00
2019-01-05T12:24:59.767Z,99805.41
2019-01-05T12:27:35.429Z,99811.47
2019-01-05T12:32:55.793Z,99811.08
2019-01-05T12:35:31.422Z,99805.11
2019-01-05T12:38:07.197Z,99809.22
2019-01-05T12:41:00.950Z,99804.83
2019-01-05T12:43:36.601Z,99804.75
2019-01-05T12:46:12.229Z,99801.06
2019-01-05T12:48:47.872Z,99802.84
2019-01-05T12:51:23.488Z,99808.70
2019-01-05T12:53:59.158Z,99810.22
2019-01-05T12:56:34.759Z,99807.16
2019-01-05T12:59:10.380Z,99815.86
2019-01-05T13:01:46.718Z,99816.02
2019-01-05T13:04:22.366Z,99806.74
2019-01-05T13:06:57.984Z,99807.54
2019-01-05T13:09:33.663Z,99811.69
2019-01-05T13:12:09.279Z,99809.33
2019-01-05T13:14:45.270Z,99808.79
2019-01-05T13:17:20.874Z,99800.89
2019-01-05T13:19:59.481Z,99807.02
2019-01-05T13:22:35.117Z,99805.13
2019-01-05T13:25:10.810Z,99815.92
2019-01-05T13:27:46.443Z,99813.14
2019-01-05T13:30:22.069Z,99820.02
2019-01-05T13:32:57.714Z,99810.89
2019-01-05T13:35:33.365Z,99815.66
2019-01-05T13:38:09.325Z,99817.97
2019-01-05T13:40:45.010Z,99813.07
2019-01-05T13:43:20.643Z,99815.05
2019-01-05T13:45:57.025Z,99818.39
2019-01-05T13:48:33.087Z,99815.83
2019-01-05T13:51:08.748Z,99817.00
2019-01-05T13:53:43.012Z,99819.14
2019-01-05T13:56:17.917Z,99813.72
2019-01-05T13:58:49.110Z,99821.57
2019-01-05T14:01:20.237Z,99822.09
2019-01-05T14:03:51.447Z,99819.68
2019-01-05T14:06:22.608Z,99819.98
2019-01-05T14:08:53.804Z,99821.91
2019-01-05T14:11:25.006Z,99825.50
2019-01-05T14:13:56.155Z,99826.55
2019-01-05T14:16:27.335Z,99828.80
2019-01-05T14:19:17.816Z,99824.21
2019-01-05T14:21:48.963Z,99828.36
2019-01-05T14:27:11.861Z,99830.94
2019-01-05T14:29:43.033Z,99823.19
2019-01-05T14:32:14.219Z,99823.29
2019-01-05T14:34:45.409Z,99826.12
2019-01-05T14:37:16.548Z,99827.88
2019-01-05T14:39:47.725Z,99826.36
2019-01-05T14:42:18.893Z,99828.18
2019-01-05T14:44:59.197Z,99828.67
2019-01-05T14:47:30.361Z,99834.27
2019-01-05T14:50:01.544Z,99838.61
2019-01-05T14:52:35.111Z,99836.16
2019-01-05T14:55:06.648Z,99837.67
2019-01-05T14:57:37.818Z,99841.56
2019-01-05T15:00:12.644Z,99846.34
2019-01-05T15:05:30.346Z,99839.20
2019-01-05T15:08:01.529Z,99840.87
2019-01-05T15:10:32.680Z,99846.13
2019-01-05T15:13:03.833Z,99847.80
2019-01-05T15:15:34.971Z,99840.79
2019-01-05T15:18:06.137Z,99845.55
2019-01-05T15:20:37.682Z,99844.47
2019-01-05T15:23:08.837Z,99845.17
2019-01-05T15:25:40.078Z,99843.80
2019-01-05T15:28:11.261Z,99842.25
2019-01-05T15:30:42.441Z,99848.12
2019-01-05T15:33:13.611Z,99853.83
2019-01-05T15:35:44.813Z,99852.00
2019-01-05T15:38:15.976Z,99856.45
2019-01-05T15:40:47.143Z,99858.45
2019-01-05T15:43:18.328Z,99860.38
2019-01-05T15:45:49.468Z,99860.21
2019-01-05T15:48:20.675Z,99853.23
2019-01-05T15:50:51.880Z,99859.73
2019-01-05T15:53:23.043Z,99855.45
2019-01-05T15:55:54.208Z,99860.03
2019-01-05T15:58:28.440Z,99863.36
2019-01-05T16:00:59.609Z,99867.88
2019-01-05T16:03:30.852Z,99873.49
2019-01-05T16:06:02.059Z,99874.88
2019-01-05T16:08:33.216Z,99884.33
2019-01-05T16:11:04.384Z,99881.03
2019-01-05T16:13:35.693Z,99880.96
2019-01-05T16:16:06.822Z,99879.07
2019-01-05T16:18:37.852Z,99874.61
2019-01-05T16:21:09.265Z,99879.05
2019-01-05T16:23:40.428Z,99871.17
2019-01-05T16:26:11.594Z,99878.03
2019-01-05T16:28:43.168Z,99877.05
2019-01-05T16:31:14.307Z,99877.96
2019-01-05T16:33:45.451Z,99876.51
2019-01-05T16:36:16.631Z,99879.70
2019-01-05T16:38:47.802Z,99886.36
2019-01-05T16:41:18.951Z,99882.09
2019-01-05T16:43:50.173Z,99880.50
2019-01-05T16:46:21.329Z,99877.75
2019-01-05T16:48:52.497Z,99877.19
2019-01-05T16:51:23.664Z,99877.47
2019-01-05T16:53:54.804Z,99880.69
2019-01-05T16:56:28.980Z,99882.71
2019-01-05T16:59:00.552Z,99885.38
2019-01-05T17:01:31.691Z,99883.34
2019-01-05T17:04:02.864Z,99886.52
2019-01-05T17:06:34.378Z,99885.67
2019-01-05T17:09:07.036Z,99885.42
2019-01-05T17:11:38.210Z,99886.98
2019-01-05T17:14:09.414Z,99891.52
2019-01-05T17:16:40.585Z,99889.88
2019-01-05T17:19:11.749Z,99895.89
2019-01-05T17:21:42.929Z,99896.59
2019-01-05T17:24:14.098Z,99897.11
2019-01-05T17:26:45.277Z,99896.09
2019-01-05T17:29:16.458Z,99900.55
2019-01-05T17:31:47.604Z,99895.62
2019-01-05T17:34:18.739Z,99899.42
2019-01-05T17:36:49.897Z,99899.77
2019-01-05T17:42:07.727Z,99900.27
2019-01-05T17:44:38.867Z,99903.55
2019-01-05T17:47:10.022Z,99902.46
2019-01-05T17:49:41.216Z,99899.04
2019-01-05T17:52:12.394Z,99894.46
2019-01-05T17:54:43.562Z,99898.09
2019-01-05T17:57:17.657Z,99898.95
2019-01-05T17:59:48.810Z,99900.55
2019-01-05T18:02:19.984Z,99900.74
2019-01-05T18:04:51.156Z,99903.17
2019-01-05T18:07:23.505Z,99900.08
2019-01-05T18:09:55.039Z,99904.72
2019-01-05T18:12:26.156Z,99907.13
2019-01-05T18:14:57.343Z,99906.91
2019-01-05T18:17:28.490Z,99903.91
2019-01-05T18:19:59.693Z,99904.33
2019-01-05T18:22:30.857Z,99905.80
2019-01-05T18:25:02.049Z,99910.53
2019-01-05T18:27:33.216Z,99910.09
2019-01-05T18:30:04.393Z,99912.77
2019-01-05T18:32:54.871Z,99910.53
2019-01-05T18:35:26.005Z,99911.08
2019-01-05T18:37:57.149Z,99912.88
2019-01-05T18:40:47.617Z,99917.06
2019-01-05T18:43:18.818Z,99916.55
2019-01-05T18:45:49.920Z,99914.25
2019-01-05T18:48:21.075Z,99909.89
2019-01-05T18:50:52.225Z,99908.92
2019-01-05T18:53:23.363Z,99907.51
2019-01-05T18:55:54.536Z,99903.00
2019-01-05T18:58:25.747Z,99905.59
2019-01-05T19:00:56.924Z,99904.13
2019-01-05T19:06:16.150Z,99905.89
2019-01-05T19:08:47.369Z,99910.10
2019-01-05T19:11:18.450Z,99916.41
2019-01-05T19:13:49.892Z,99911.03
2019-01-05T19:16:21.031Z,99913.39
2019-01-05T19:18:52.179Z,99910.27
2019-01-05T19:21:23.368Z,99909.47
2019-01-05T19:23:54.539Z,99902.30
2019-01-05T19:26:25.679Z,99906.19
2019-01-05T19:28:56.927Z,99912.73
2019-01-05T19:31:28.159Z,99911.70
2019-01-05T19:33:59.314Z,99912.84
2019-01-05T19:36:30.525Z,99916.89
2019-01-05T19:39:01.680Z,99917.36
2019-01-05T19:41:32.811Z,99922.57
2019-01-05T19:44:04.069Z,99924.34
2019-01-05T19:46:36.803Z,99922.79
2019-01-05T19:49:07.979Z,99915.10
2019-01-05T19:51:39.181Z,99914.09
2019-01-05T19:54:10.344Z,99907.74
2019-01-05T19:56:41.511Z,99907.44
2019-01-05T19:59:12.797Z,99903.85
2019-01-05T20:01:43.954Z,99895.97
2019-01-05T20:04:15.124Z,99897.90
2019-01-05T20:06:46.593Z,99893.56
2019-01-05T20:09:17.736Z,99896.20
2019-01-05T20:11:48.899Z,99896.17
2019-01-05T20:14:20.051Z,99894.53
2019-01-05T20:16:51.229Z,99895.56
2019-01-05T20:19:22.368Z,99887.75
2019-01-05T20:21:53.936Z,99888.09
2019-01-05T20:24:25.173Z,99890.34
2019-01-05T20:26:56.370Z,99889.67
2019-01-05T20:29:27.809Z,99890.99
2019-01-05T20:31:58.966Z,99894.38
2019-01-05T20:34:30.133Z,99896.32
2019-01-05T20:37:01.316Z,99904.70
2019-01-05T20:39:32.451Z,99905.27
2019-01-05T20:42:03.591Z,99901.63
2019-01-05T20:44:34.769Z,99898.35
2019-01-05T20:47:11.872Z,99902.44
2019-01-05T20:49:43.036Z,99905.23
2019-01-05T20:52:14.179Z,99897.83
2019-01-05T20:57:32.172Z,99891.97
2019-01-05T21:00:03.377Z,99890.73
2019-01-05T21:02:34.538Z,99892.84
2019-01-05T21:05:06.119Z,99906.27
2019-01-05T21:07:38.271Z,99904.80
2019-01-05T21:10:11.405Z,99899.11
2019-01-05T21:12:42.540Z,99892.26
2019-01-05T21:15:13.681Z,99894.20
2019-01-05T21:18:04.148Z,99885.05
2019-01-05T21:20:35.915Z,99883.08
2019-01-05T21:23:07.421Z,99889.56
2019-01-05T21:25:40.566Z,99888.36
2019-01-05T21:28:11.828Z,99882.44
2019-01-05T21:30:43.029Z,99883.61
2019-01-05T21:33:14.523Z,99893.64
2019-01-05T21:35:45.662Z,99895.00
2019-01-05T21:38:16.791Z,99901.92
2019-01-05T21:40:47.948Z,99902.40
2019-01-05T21:43:19.094Z,99893.70
2019-01-05T21:45:51.816Z,99885.73
2019-01-05T21:48:23.259Z,99891.08
2019-01-05T21:50:54.415Z,99896.38
2019-01-05T21:53:25.567Z,99893.94
2019-01-05T21:55:56.759Z,99898.27
2019-01-05T21:58:47.212Z,99898.11
2019-01-05T22:01:18.399Z,99894.53
2019-01-05T22:03:49.558Z,99892.04
2019-01-05T22:06:20.703Z,99896.18
2019-01-05T22:08:53.161Z,99899.97
2019-01-05T22:11:43.644Z,99912.95
2019-01-05T22:14:15.175Z,99906.22
2019-01-05T22:16:46.412Z,99912.79
2019-01-05T22:19:17.601Z,99918.59
2019-01-05T22:21:48.774Z,99919.62
2019-01-05T22:24:20.302Z,99924.54
2019-01-05T22:26:51.479Z,99931.44
2019-01-05T22:29:22.662Z,99928.44
2019-01-05T22:31:53.830Z,99922.17
2019-01-05T22:34:31.184Z,99919.77
2019-01-05T22:37:02.363Z,99917.71
2019-01-05T22:39:33.514Z,99917.86
2019-01-05T22:42:04.709Z,99918.06
2019-01-05T22:44:35.861Z,99909.09
2019-01-05T22:49:53.626Z,99912.02
2019-01-05T22:52:24.791Z,99908.33
2019-01-05T22:54:55.932Z,99899.48
2019-01-05T22:57:27.118Z,99903.73
2019-01-05T22:59:58.271Z,99901.30
2019-01-05T23:02:30.250Z,99898.19
2019-01-05T23:05:01.499Z,99901.89
2019-01-05T23:07:32.671Z,99898.36
2019-01-05T23:10:03.916Z,99902.28
2019-01-05T23:12:35.065Z,99887.55
2019-01-05T23:15:07.491Z,99887.50
2019-01-05T23:17:38.642Z,99887.52
2019-01-05T23:20:11.268Z,99896.97
2019-01-05T23:22:42.418Z,99901.07
2019-01-05T23:25:13.604Z,99897.39
2019-01-05T23:27:44.767Z,99900.59
2019-01-05T23:30:15.907Z,99896.93
2019-01-05T23:32:47.083Z,99905.17
2019-01-05T23:35:18.278Z,99900.82
2019-01-05T23:37:49.581Z,99902.48
2019-01-05T23:40:20.729Z,99900.72
2019-01-05T23:42:51.895Z,99904.89
2019-01-05T23:45:23.052Z,99909.20
2019-01-05T23:47:54.224Z,99902.98
2019-01-05T23:50:25.384Z,99901.75
2019-01-05T23:52:56.561Z,99905.36
2019-01-05T23:55:27.728Z,99905.36
2019-01-05T23:58:03.385Z,99903.75
